sensor_id;sensor_type;location;lat;lon;timestamp;pressure;altitude;pressure_sealevel;temperature;humidity
22743;BME280;11538;48.884;8.696;2023-07-20T00:01:52;98624.28;;;22.26;45.57
22743;BME280;11538;48.884;8.696;2023-07-20T00:04:19;98622.28;;;22.23;45.68
22743;BME280;11538;48.884;8.696;2023-07-20T00:06:47;98619.47;;;22.16;45.84
22743;BME280;11538;48.884;8.696;2023-07-20T00:09:14;98623.81;;;22.17;45.85
22743;BME280;11538;48.884;8.696;2023-07-20T00:11:49;98621.75;;;22.06;46.06
22743;BME280;11538;48.884;8.696;2023-07-20T00:14:20;98621.75;;;22.06;46.25
22743;BME280;11538;48.884;8.696;2023-07-20T00:16:49;98618.56;;;22.04;46.47
22743;BME280;11538;48.884;8.696;2023-07-20T00:19:24;98617.31;;;21.95;46.57
22743;BME280;11538;48.884;8.696;2023-07-20T00:21:53;98620.03;;;21.91;46.73
22743;BME280;11538;48.884;8.696;2023-07-20T00:24:20;98616.88;;;21.89;46.78
22743;BME280;11538;48.884;8.696;2023-07-20T00:26:48;98627.50;;;21.87;47.00
22743;BME280;11538;48.884;8.696;2023-07-20T00:29:15;98630.56;;;21.78;47.18
22743;BME280;11538;48.884;8.696;2023-07-20T00:31:42;98623.78;;;21.72;47.62
22743;BME280;11538;48.884;8.696;2023-07-20T00:34:10;98627.31;;;21.69;47.83
22743;BME280;11538;48.884;8.696;2023-07-20T00:36:37;98622.63;;;21.73;47.72
22743;BME280;11538;48.884;8.696;2023-07-20T00:39:04;98623.78;;;21.72;48.01
22743;BME280;11538;48.884;8.696;2023-07-20T00:41:31;98624.53;;;21.65;48.40
22743;BME280;11538;48.884;8.696;2023-07-20T00:43:59;98623.28;;;21.62;48.48
22743;BME280;11538;48.884;8.696;2023-07-20T00:46:26;98622.06;;;21.60;48.65
22743;BME280;11538;48.884;8.696;2023-07-20T00:48:54;98625.63;;;21.60;48.83
22743;BME280;11538;48.884;8.696;2023-07-20T00:51:23;98630.31;;;21.56;48.96
22743;BME280;11538;48.884;8.696;2023-07-20T00:53:52;98630.63;;;21.47;49.04
22743;BME280;11538;48.884;8.696;2023-07-20T00:56:21;98622.63;;;21.39;49.55
22743;BME280;11538;48.884;8.696;2023-07-20T00:58:49;98631.66;;;21.36;49.92
22743;BME280;11538;48.884;8.696;2023-07-20T01:01:16;98634.00;;;21.33;49.68
22743;BME280;11538;48.884;8.696;2023-07-20T01:03:43;98626.44;;;21.27;50.00
22743;BME280;11538;48.884;8.696;2023-07-20T01:09:32;98628.44;;;21.30;50.33
22743;BME280;11538;48.884;8.696;2023-07-20T01:12:51;98631.91;;;21.23;50.51
22743;BME280;11538;48.884;8.696;2023-07-20T01:15:16;98627.50;;;21.18;51.30
22743;BME280;11538;48.884;8.696;2023-07-20T01:17:43;98619.91;;;21.08;51.54
22743;BME280;11538;48.884;8.696;2023-07-20T01:20:15;98630.47;;;21.02;51.71
22743;BME280;11538;48.884;8.696;2023-07-20T01:29:22;98620.09;;;20.65;53.90
22743;BME280;11538;48.884;8.696;2023-07-20T01:31:55;98620.03;;;20.62;54.10
22743;BME280;11538;48.884;8.696;2023-07-20T01:34:25;98623.00;;;20.49;54.72
22743;BME280;11538;48.884;8.696;2023-07-20T01:36:57;98629.78;;;20.28;55.20
22743;BME280;11538;48.884;8.696;2023-07-20T01:39:24;98622.88;;;20.15;55.68
22743;BME280;11538;48.884;8.696;2023-07-20T01:41:52;98627.09;;;20.09;56.47
22743;BME280;11538;48.884;8.696;2023-07-20T01:44:19;98619.25;;;20.11;56.51
22743;BME280;11538;48.884;8.696;2023-07-20T01:46:46;98617.69;;;20.10;56.67
22743;BME280;11538;48.884;8.696;2023-07-20T01:49:13;98613.03;;;20.14;56.79
22743;BME280;11538;48.884;8.696;2023-07-20T01:51:40;98609.09;;;20.15;56.65
22743;BME280;11538;48.884;8.696;2023-07-20T01:54:07;98611.00;;;20.11;56.99
22743;BME280;11538;48.884;8.696;2023-07-20T01:56:34;98611.66;;;20.04;57.51
22743;BME280;11538;48.884;8.696;2023-07-20T01:59:01;98616.81;;;20.06;57.54
22743;BME280;11538;48.884;8.696;2023-07-20T02:01:27;98618.66;;;19.98;57.80
22743;BME280;11538;48.884;8.696;2023-07-20T02:03:55;98623.91;;;19.87;58.28
22743;BME280;11538;48.884;8.696;2023-07-20T02:06:22;98614.81;;;19.83;58.52
22743;BME280;11538;48.884;8.696;2023-07-20T02:08:50;98621.91;;;19.61;59.26
22743;BME280;11538;48.884;8.696;2023-07-20T02:11:17;98614.75;;;19.36;60.02
22743;BME280;11538;48.884;8.696;2023-07-20T02:13:43;98612.97;;;19.24;60.74
22743;BME280;11538;48.884;8.696;2023-07-20T02:16:10;98614.91;;;19.24;60.82
22743;BME280;11538;48.884;8.696;2023-07-20T02:18:38;98617.06;;;19.34;60.42
22743;BME280;11538;48.884;8.696;2023-07-20T02:21:05;98618.94;;;19.30;60.54
22743;BME280;11538;48.884;8.696;2023-07-20T02:23:32;98618.59;;;19.32;60.84
22743;BME280;11538;48.884;8.696;2023-07-20T02:25:59;98611.50;;;19.31;60.88
22743;BME280;11538;48.884;8.696;2023-07-20T02:28:26;98615.00;;;19.27;60.91
22743;BME280;11538;48.884;8.696;2023-07-20T02:30:53;98615.28;;;19.22;61.43
22743;BME280;11538;48.884;8.696;2023-07-20T02:33:20;98623.00;;;19.17;61.50
22743;BME280;11538;48.884;8.696;2023-07-20T02:35:48;98614.31;;;19.14;61.63
22743;BME280;11538;48.884;8.696;2023-07-20T02:38:15;98615.78;;;19.08;61.79
22743;BME280;11538;48.884;8.696;2023-07-20T02:40:42;98622.00;;;19.05;62.23
22743;BME280;11538;48.884;8.696;2023-07-20T02:43:09;98626.91;;;19.16;62.59
22743;BME280;11538;48.884;8.696;2023-07-20T02:45:40;98625.09;;;19.04;63.54
22743;BME280;11538;48.884;8.696;2023-07-20T02:48:08;98627.78;;;19.00;63.54
22743;BME280;11538;48.884;8.696;2023-07-20T02:50:35;98629.38;;;18.85;64.06
22743;BME280;11538;48.884;8.696;2023-07-20T02:53:06;98633.56;;;18.79;64.27
22743;BME280;11538;48.884;8.696;2023-07-20T02:55:33;98633.94;;;18.77;64.15
22743;BME280;11538;48.884;8.696;2023-07-20T02:58:01;98631.09;;;18.74;64.18
22743;BME280;11538;48.884;8.696;2023-07-20T03:00:29;98625.75;;;18.81;64.08
22743;BME280;11538;48.884;8.696;2023-07-20T03:02:56;98628.88;;;18.79;64.18
22743;BME280;11538;48.884;8.696;2023-07-20T03:05:24;98630.78;;;18.95;63.75
22743;BME280;11538;48.884;8.696;2023-07-20T03:07:52;98630.22;;;19.05;63.11
22743;BME280;11538;48.884;8.696;2023-07-20T03:10:19;98632.97;;;19.05;63.19
22743;BME280;11538;48.884;8.696;2023-07-20T03:12:46;98633.13;;;19.12;62.63
22743;BME280;11538;48.884;8.696;2023-07-20T03:15:13;98623.59;;;19.06;62.81
22743;BME280;11538;48.884;8.696;2023-07-20T03:17:40;98622.72;;;19.02;63.50
22743;BME280;11538;48.884;8.696;2023-07-20T03:20:09;98623.88;;;18.85;64.06
22743;BME280;11538;48.884;8.696;2023-07-20T03:22:38;98622.72;;;18.86;63.94
22743;BME280;11538;48.884;8.696;2023-07-20T03:25:09;98629.59;;;18.76;64.38
22743;BME280;11538;48.884;8.696;2023-07-20T03:27:40;98637.50;;;18.62;64.91
22743;BME280;11538;48.884;8.696;2023-07-20T03:30:12;98640.31;;;18.65;64.88
22743;BME280;11538;48.884;8.696;2023-07-20T03:32:41;98637.25;;;18.51;65.26
22743;BME280;11538;48.884;8.696;2023-07-20T03:35:08;98644.34;;;18.36;66.46
22743;BME280;11538;48.884;8.696;2023-07-20T03:37:35;98640.00;;;18.35;66.67
22743;BME280;11538;48.884;8.696;2023-07-20T03:40:03;98647.47;;;18.34;66.70
22743;BME280;11538;48.884;8.696;2023-07-20T03:42:31;98646.31;;;18.35;66.70
22743;BME280;11538;48.884;8.696;2023-07-20T03:45:00;98647.34;;;18.47;66.38
22743;BME280;11538;48.884;8.696;2023-07-20T03:47:29;98643.19;;;18.53;66.04
22743;BME280;11538;48.884;8.696;2023-07-20T03:49:57;98650.66;;;18.36;67.67
22743;BME280;11538;48.884;8.696;2023-07-20T03:52:24;98656.22;;;18.24;68.21
22743;BME280;11538;48.884;8.696;2023-07-20T03:54:51;98649.22;;;18.26;68.51
22743;BME280;11538;48.884;8.696;2023-07-20T03:57:18;98654.72;;;18.26;68.15
22743;BME280;11538;48.884;8.696;2023-07-20T03:59:47;98661.09;;;18.15;68.38
22743;BME280;11538;48.884;8.696;2023-07-20T04:02:15;98651.00;;;18.03;69.33
22743;BME280;11538;48.884;8.696;2023-07-20T04:04:42;98659.66;;;18.05;69.38
22743;BME280;11538;48.884;8.696;2023-07-20T04:07:15;98658.88;;;18.20;69.06
22743;BME280;11538;48.884;8.696;2023-07-20T04:09:44;98658.81;;;18.17;69.43
22743;BME280;11538;48.884;8.696;2023-07-20T04:12:11;98655.94;;;18.13;69.29
22743;BME280;11538;48.884;8.696;2023-07-20T04:14:38;98656.13;;;18.20;69.57
22743;BME280;11538;48.884;8.696;2023-07-20T04:17:05;98664.91;;;18.26;69.40
22743;BME280;11538;48.884;8.696;2023-07-20T04:19:32;98652.06;;;18.30;69.08
22743;BME280;11538;48.884;8.696;2023-07-20T04:21:59;98659.41;;;18.26;69.14
22743;BME280;11538;48.884;8.696;2023-07-20T04:24:26;98662.00;;;18.19;69.40
22743;BME280;11538;48.884;8.696;2023-07-20T04:26:56;98662.50;;;18.24;69.05
22743;BME280;11538;48.884;8.696;2023-07-20T04:29:23;98662.59;;;18.12;69.13
22743;BME280;11538;48.884;8.696;2023-07-20T04:31:50;98665.25;;;18.08;69.75
22743;BME280;11538;48.884;8.696;2023-07-20T04:34:17;98664.28;;;18.17;69.01
22743;BME280;11538;48.884;8.696;2023-07-20T04:36:44;98662.78;;;18.19;69.22
22743;BME280;11538;48.884;8.696;2023-07-20T04:39:13;98665.34;;;18.12;69.14
22743;BME280;11538;48.884;8.696;2023-07-20T04:41:57;98658.00;;;18.16;69.25
22743;BME280;11538;48.884;8.696;2023-07-20T04:44:24;98667.81;;;18.17;69.25
22743;BME280;11538;48.884;8.696;2023-07-20T04:46:51;98669.78;;;18.17;69.27
22743;BME280;11538;48.884;8.696;2023-07-20T04:49:18;98663.47;;;18.16;69.42
22743;BME280;11538;48.884;8.696;2023-07-20T04:51:45;98667.91;;;18.21;69.20
22743;BME280;11538;48.884;8.696;2023-07-20T04:54:12;98665.34;;;18.12;69.60
22743;BME280;11538;48.884;8.696;2023-07-20T04:56:40;98665.34;;;18.28;69.66
22743;BME280;11538;48.884;8.696;2023-07-20T04:59:07;98666.25;;;18.32;69.62
22743;BME280;11538;48.884;8.696;2023-07-20T05:01:34;98666.41;;;18.39;69.51
22743;BME280;11538;48.884;8.696;2023-07-20T05:04:02;98672.16;;;18.50;68.97
22743;BME280;11538;48.884;8.696;2023-07-20T05:06:29;98675.69;;;18.51;69.04
22743;BME280;11538;48.884;8.696;2023-07-20T05:08:56;98670.03;;;18.60;68.76
22743;BME280;11538;48.884;8.696;2023-07-20T05:11:23;98668.94;;;18.64;68.68
22743;BME280;11538;48.884;8.696;2023-07-20T05:13:50;98672.78;;;18.60;69.14
22743;BME280;11538;48.884;8.696;2023-07-20T05:16:18;98670.63;;;18.69;68.72
22743;BME280;11538;48.884;8.696;2023-07-20T05:18:45;98667.63;;;18.74;68.64
22743;BME280;11538;48.884;8.696;2023-07-20T05:21:13;98670.59;;;18.85;68.22
22743;BME280;11538;48.884;8.696;2023-07-20T05:23:40;98671.13;;;18.91;68.15
22743;BME280;11538;48.884;8.696;2023-07-20T05:26:08;98661.97;;;19.03;67.69
22743;BME280;11538;48.884;8.696;2023-07-20T05:28:36;98660.09;;;19.07;67.50
22743;BME280;11538;48.884;8.696;2023-07-20T05:31:03;98658.03;;;19.20;66.99
22743;BME280;11538;48.884;8.696;2023-07-20T05:33:30;98669.16;;;19.27;66.89
22743;BME280;11538;48.884;8.696;2023-07-20T05:35:57;98659.31;;;19.26;66.60
22743;BME280;11538;48.884;8.696;2023-07-20T05:38:25;98657.50;;;19.14;67.29
22743;BME280;11538;48.884;8.696;2023-07-20T05:40:52;98660.63;;;18.96;67.83
22743;BME280;11538;48.884;8.696;2023-07-20T05:43:19;98661.25;;;19.06;68.13
22743;BME280;11538;48.884;8.696;2023-07-20T05:45:46;98657.72;;;19.05;67.95
22743;BME280;11538;48.884;8.696;2023-07-20T05:48:15;98651.28;;;19.17;67.95
22743;BME280;11538;48.884;8.696;2023-07-20T05:50:43;98648.19;;;19.38;67.05
22743;BME280;11538;48.884;8.696;2023-07-20T05:53:11;98653.22;;;19.56;66.57
22743;BME280;11538;48.884;8.696;2023-07-20T05:55:38;98649.53;;;19.68;66.68
22743;BME280;11538;48.884;8.696;2023-07-20T05:58:07;98650.78;;;19.90;65.85
22743;BME280;11538;48.884;8.696;2023-07-20T06:00:34;98646.41;;;20.12;64.99
22743;BME280;11538;48.884;8.696;2023-07-20T06:03:01;98654.50;;;20.25;64.52
22743;BME280;11538;48.884;8.696;2023-07-20T06:05:29;98653.56;;;20.40;64.12
22743;BME280;11538;48.884;8.696;2023-07-20T06:07:57;98657.91;;;20.41;63.66
22743;BME280;11538;48.884;8.696;2023-07-20T06:10:25;98662.44;;;20.53;63.61
22743;BME280;11538;48.884;8.696;2023-07-20T06:12:53;98664.22;;;20.69;62.90
22743;BME280;11538;48.884;8.696;2023-07-20T06:15:34;98664.28;;;20.72;62.64
22743;BME280;11538;48.884;8.696;2023-07-20T06:18:05;98661.88;;;20.67;61.19
22743;BME280;11538;48.884;8.696;2023-07-20T06:20:33;98660.69;;;20.68;59.13
22743;BME280;11538;48.884;8.696;2023-07-20T06:23:00;98656.38;;;20.71;59.29
22743;BME280;11538;48.884;8.696;2023-07-20T06:25:27;98665.59;;;20.79;58.97
22743;BME280;11538;48.884;8.696;2023-07-20T06:27:55;98669.97;;;20.83;58.29
22743;BME280;11538;48.884;8.696;2023-07-20T06:30:24;98662.63;;;20.91;58.34
22743;BME280;11538;48.884;8.696;2023-07-20T06:32:51;98669.31;;;20.90;58.09
22743;BME280;11538;48.884;8.696;2023-07-20T06:35:19;98663.81;;;20.94;58.31
22743;BME280;11538;48.884;8.696;2023-07-20T06:37:46;98662.38;;;21.03;57.63
22743;BME280;11538;48.884;8.696;2023-07-20T06:40:13;98664.34;;;21.03;57.79
22743;BME280;11538;48.884;8.696;2023-07-20T06:42:43;98669.00;;;20.99;58.31
22743;BME280;11538;48.884;8.696;2023-07-20T06:45:13;98659.91;;;20.95;58.06
22743;BME280;11538;48.884;8.696;2023-07-20T06:47:41;98656.38;;;20.98;58.14
22743;BME280;11538;48.884;8.696;2023-07-20T06:50:10;98661.25;;;21.08;58.30
22743;BME280;11538;48.884;8.696;2023-07-20T06:52:43;98667.19;;;21.10;57.78
22743;BME280;11538;48.884;8.696;2023-07-20T06:55:10;98663.03;;;20.93;58.45
22743;BME280;11538;48.884;8.696;2023-07-20T06:57:37;98669.84;;;21.03;58.53
22743;BME280;11538;48.884;8.696;2023-07-20T07:00:05;98662.84;;;21.09;58.05
22743;BME280;11538;48.884;8.696;2023-07-20T07:02:43;98658.41;;;21.31;57.90
22743;BME280;11538;48.884;8.696;2023-07-20T07:05:17;98655.47;;;21.47;57.38
22743;BME280;11538;48.884;8.696;2023-07-20T07:07:49;98658.91;;;21.71;56.50
22743;BME280;11538;48.884;8.696;2023-07-20T07:10:16;98659.66;;;21.72;56.71
22743;BME280;11538;48.884;8.696;2023-07-20T07:12:46;98659.72;;;21.75;56.64
22743;BME280;11538;48.884;8.696;2023-07-20T07:15:15;98659.72;;;21.75;56.07
22743;BME280;11538;48.884;8.696;2023-07-20T07:17:44;98662.50;;;21.75;56.35
22743;BME280;11538;48.884;8.696;2023-07-20T07:20:16;98671.53;;;21.72;56.46
22743;BME280;11538;48.884;8.696;2023-07-20T07:22:55;98666.44;;;21.78;56.26
22743;BME280;11538;48.884;8.696;2023-07-20T07:25:31;98664.94;;;21.84;55.80
22743;BME280;11538;48.884;8.696;2023-07-20T07:28:01;98662.34;;;21.99;55.27
22743;BME280;11538;48.884;8.696;2023-07-20T07:30:30;98662.41;;;22.10;55.12
22743;BME280;11538;48.884;8.696;2023-07-20T07:33:00;98673.09;;;22.11;55.09
22743;BME280;11538;48.884;8.696;2023-07-20T07:35:27;98670.69;;;22.06;54.99
22743;BME280;11538;48.884;8.696;2023-07-20T07:37:54;98662.41;;;22.06;54.89
22743;BME280;11538;48.884;8.696;2023-07-20T07:40:39;98667.72;;;22.29;54.58
22743;BME280;11538;48.884;8.696;2023-07-20T07:43:06;98665.34;;;22.28;54.27
22743;BME280;11538;48.884;8.696;2023-07-20T07:45:36;98670.19;;;22.42;54.28
22743;BME280;11538;48.884;8.696;2023-07-20T07:48:06;98668.84;;;22.70;52.96
22743;BME280;11538;48.884;8.696;2023-07-20T07:50:34;98668.59;;;22.89;52.46
22743;BME280;11538;48.884;8.696;2023-07-20T07:53:01;98673.38;;;23.00;52.13
22743;BME280;11538;48.884;8.696;2023-07-20T07:55:28;98672.19;;;23.01;51.74
22743;BME280;11538;48.884;8.696;2023-07-20T07:57:55;98666.25;;;22.99;51.94
22743;BME280;11538;48.884;8.696;2023-07-20T08:00:22;98668.25;;;23.02;51.17
22743;BME280;11538;48.884;8.696;2023-07-20T08:02:50;98672.59;;;23.03;51.27
22743;BME280;11538;48.884;8.696;2023-07-20T08:05:17;98683.19;;;22.90;52.10
22743;BME280;11538;48.884;8.696;2023-07-20T08:07:46;98674.56;;;22.99;52.01
22743;BME280;11538;48.884;8.696;2023-07-20T08:10:15;98674.13;;;22.93;52.15
22743;BME280;11538;48.884;8.696;2023-07-20T08:12:42;98682.13;;;23.13;51.24
22743;BME280;11538;48.884;8.696;2023-07-20T08:15:11;98677.13;;;23.29;50.62
22743;BME280;11538;48.884;8.696;2023-07-20T08:17:41;98671.19;;;23.31;51.12
22743;BME280;11538;48.884;8.696;2023-07-20T08:20:10;98679.25;;;23.69;49.83
22743;BME280;11538;48.884;8.696;2023-07-20T08:22:40;98666.66;;;23.93;49.24
22743;BME280;11538;48.884;8.696;2023-07-20T08:25:08;98675.38;;;24.02;48.82
22743;BME280;11538;48.884;8.696;2023-07-20T08:27:36;98666.25;;;23.91;48.77
22743;BME280;11538;48.884;8.696;2023-07-20T08:30:04;98676.16;;;23.99;49.00
22743;BME280;11538;48.884;8.696;2023-07-20T08:32:32;98676.97;;;24.14;48.34
22743;BME280;11538;48.884;8.696;2023-07-20T08:34:59;98675.41;;;24.31;47.56
22743;BME280;11538;48.884;8.696;2023-07-20T08:37:26;98673.41;;;24.39;46.85
22743;BME280;11538;48.884;8.696;2023-07-20T08:39:53;98668.69;;;24.47;45.70
22743;BME280;11538;48.884;8.696;2023-07-20T08:42:22;98667.50;;;24.59;46.39
22743;BME280;11538;48.884;8.696;2023-07-20T08:44:52;98667.84;;;24.90;45.38
22743;BME280;11538;48.884;8.696;2023-07-20T08:47:23;98671.44;;;24.87;44.96
22743;BME280;11538;48.884;8.696;2023-07-20T08:49:55;98668.25;;;24.81;45.15
22743;BME280;11538;48.884;8.696;2023-07-20T08:52:22;98669.44;;;24.80;44.43
22743;BME280;11538;48.884;8.696;2023-07-20T08:54:51;98665.50;;;24.63;44.96
22743;BME280;11538;48.884;8.696;2023-07-20T08:57:21;98659.56;;;24.43;44.72
22743;BME280;11538;48.884;8.696;2023-07-20T08:59:51;98657.56;;;24.50;44.29
22743;BME280;11538;48.884;8.696;2023-07-20T09:02:22;98673.81;;;24.92;44.60
22743;BME280;11538;48.884;8.696;2023-07-20T09:04:52;98661.88;;;25.02;43.07
22743;BME280;11538;48.884;8.696;2023-07-20T09:07:19;98655.47;;;25.20;42.57
22743;BME280;11538;48.884;8.696;2023-07-20T09:09:47;98667.25;;;25.53;41.70
22743;BME280;11538;48.884;8.696;2023-07-20T09:12:15;98669.00;;;25.00;41.58
22743;BME280;11538;48.884;8.696;2023-07-20T09:14:44;98659.88;;;25.06;42.10
22743;BME280;11538;48.884;8.696;2023-07-20T09:17:15;98663.31;;;25.39;43.01
22743;BME280;11538;48.884;8.696;2023-07-20T09:19:48;98668.28;;;25.88;41.12
22743;BME280;11538;48.884;8.696;2023-07-20T09:22:15;98664.16;;;26.11;40.37
22743;BME280;11538;48.884;8.696;2023-07-20T09:24:42;98654.72;;;25.94;40.13
22743;BME280;11538;48.884;8.696;2023-07-20T09:27:11;98658.06;;;26.27;39.90
22743;BME280;11538;48.884;8.696;2023-07-20T09:29:49;98660.41;;;26.36;39.20
22743;BME280;11538;48.884;8.696;2023-07-20T09:32:21;98675.00;;;26.43;39.06
22743;BME280;11538;48.884;8.696;2023-07-20T09:34:51;98661.19;;;26.78;39.11
22743;BME280;11538;48.884;8.696;2023-07-20T09:37:23;98660.44;;;26.74;38.88
22743;BME280;11538;48.884;8.696;2023-07-20T09:39:53;98662.88;;;26.23;38.85
22743;BME280;11538;48.884;8.696;2023-07-20T09:42:24;98673.41;;;25.93;40.10
22743;BME280;11538;48.884;8.696;2023-07-20T09:44:56;98672.78;;;26.24;39.41
22743;BME280;11538;48.884;8.696;2023-07-20T09:47:24;98653.78;;;26.64;37.25
22743;BME280;11538;48.884;8.696;2023-07-20T09:49:59;98655.19;;;26.87;37.39
22743;BME280;11538;48.884;8.696;2023-07-20T09:52:35;98651.56;;;26.90;37.74
22743;BME280;11538;48.884;8.696;2023-07-20T09:55:25;98662.88;;;26.23;37.85
22743;BME280;11538;48.884;8.696;2023-07-20T09:57:53;98654.13;;;25.61;38.49
22743;BME280;11538;48.884;8.696;2023-07-20T10:00:20;98653.38;;;25.53;38.68
22743;BME280;11538;48.884;8.696;2023-07-20T10:02:52;98656.16;;;26.17;38.16
22743;BME280;11538;48.884;8.696;2023-07-20T10:05:20;98651.47;;;26.59;37.00
22743;BME280;11538;48.884;8.696;2023-07-20T10:07:50;98650.56;;;26.69;37.80
22743;BME280;11538;48.884;8.696;2023-07-20T10:10:41;98648.91;;;26.34;35.88
22743;BME280;11538;48.884;8.696;2023-07-20T10:13:25;98637.28;;;25.93;37.09
22743;BME280;11538;48.884;8.696;2023-07-20T10:16:01;98648.88;;;25.74;37.77
22743;BME280;11538;48.884;8.696;2023-07-20T10:18:57;98647.16;;;25.98;37.35
22743;BME280;11538;48.884;8.696;2023-07-20T10:21:29;98648.38;;;26.46;35.44
22743;BME280;11538;48.884;8.696;2023-07-20T10:24:00;98645.47;;;26.61;34.93
22743;BME280;11538;48.884;8.696;2023-07-20T10:26:28;98644.28;;;27.00;34.06
22743;BME280;11538;48.884;8.696;2023-07-20T10:28:56;98636.00;;;27.31;33.52
22743;BME280;11538;48.884;8.696;2023-07-20T10:31:26;98632.78;;;27.64;33.77
22743;BME280;11538;48.884;8.696;2023-07-20T10:33:59;98627.31;;;27.84;33.44
22743;BME280;11538;48.884;8.696;2023-07-20T10:36:27;98631.34;;;27.79;33.21
22743;BME280;11538;48.884;8.696;2023-07-20T10:38:58;98622.13;;;27.86;32.45
22743;BME280;11538;48.884;8.696;2023-07-20T10:41:37;98624.31;;;27.71;33.47
22743;BME280;11538;48.884;8.696;2023-07-20T10:44:10;98622.91;;;27.86;33.63
22743;BME280;11538;48.884;8.696;2023-07-20T10:46:45;98620.84;;;28.18;31.55
22743;BME280;11538;48.884;8.696;2023-07-20T10:49:14;98618.78;;;28.22;30.66
22743;BME280;11538;48.884;8.696;2023-07-20T10:51:45;98620.22;;;28.30;30.93
22743;BME280;11538;48.884;8.696;2023-07-20T10:56:47;98600.41;;;28.49;31.02
22743;BME280;11538;48.884;8.696;2023-07-20T11:01:55;98611.25;;;28.87;30.21
22743;BME280;11538;48.884;8.696;2023-07-20T11:04:42;98616.44;;;28.88;29.82
22743;BME280;11538;48.884;8.696;2023-07-20T11:07:10;98610.34;;;28.94;29.82
22743;BME280;11538;48.884;8.696;2023-07-20T11:09:40;98616.56;;;29.01;29.70
22743;BME280;11538;48.884;8.696;2023-07-20T11:12:15;98620.28;;;29.15;30.35
22743;BME280;11538;48.884;8.696;2023-07-20T11:17:20;98617.78;;;29.00;31.09
22743;BME280;11538;48.884;8.696;2023-07-20T11:19:49;98602.38;;;29.32;31.07
22743;BME280;11538;48.884;8.696;2023-07-20T11:22:20;98598.19;;;29.77;31.18
22743;BME280;11538;48.884;8.696;2023-07-20T11:24:47;98591.06;;;30.10;29.74
22743;BME280;11538;48.884;8.696;2023-07-20T11:27:15;98599.34;;;29.97;30.37
22743;BME280;11538;48.884;8.696;2023-07-20T11:29:45;98591.31;;;30.15;28.33
22743;BME280;11538;48.884;8.696;2023-07-20T11:32:12;98595.16;;;30.22;28.32
22743;BME280;11538;48.884;8.696;2023-07-20T11:34:39;98585.97;;;29.35;29.44
22743;BME280;11538;48.884;8.696;2023-07-20T11:37:06;98584.47;;;29.83;29.17
22743;BME280;11538;48.884;8.696;2023-07-20T11:39:36;98587.00;;;29.77;29.69
22743;BME280;11538;48.884;8.696;2023-07-20T11:42:04;98585.59;;;29.53;29.93
22743;BME280;11538;48.884;8.696;2023-07-20T11:44:32;98594.59;;;29.60;30.29
22743;BME280;11538;48.884;8.696;2023-07-20T11:49:41;98584.06;;;30.93;27.19
22743;BME280;11538;48.884;8.696;2023-07-20T11:52:16;98582.03;;;31.36;25.95
22743;BME280;11538;48.884;8.696;2023-07-20T11:54:45;98571.28;;;31.48;25.75
22743;BME280;11538;48.884;8.696;2023-07-20T11:57:20;98572.41;;;31.76;25.53
22743;BME280;11538;48.884;8.696;2023-07-20T12:02:29;98568.13;;;31.85;25.82
22743;BME280;11538;48.884;8.696;2023-07-20T12:04:57;98569.31;;;32.09;25.36
22743;BME280;11538;48.884;8.696;2023-07-20T12:07:28;98566.09;;;31.59;25.83
22743;BME280;11538;48.884;8.696;2023-07-20T12:10:10;98568.03;;;31.49;25.56
22743;BME280;11538;48.884;8.696;2023-07-20T12:12:40;98566.50;;;32.09;25.33
22743;BME280;11538;48.884;8.696;2023-07-20T12:17:49;98541.63;;;32.69;24.40
22743;BME280;11538;48.884;8.696;2023-07-20T12:20:35;98554.50;;;33.02;23.95
22743;BME280;11538;48.884;8.696;2023-07-20T12:23:11;98546.94;;;33.21;22.75
22743;BME280;11538;48.884;8.696;2023-07-20T12:25:43;98542.56;;;33.20;21.91
22743;BME280;11538;48.884;8.696;2023-07-20T12:28:13;98543.84;;;32.96;23.16
22743;BME280;11538;48.884;8.696;2023-07-20T12:30:42;98544.50;;;33.32;22.12
22743;BME280;11538;48.884;8.696;2023-07-20T12:33:13;98538.97;;;32.65;21.79
22743;BME280;11538;48.884;8.696;2023-07-20T12:35:45;98541.69;;;32.78;22.46
22743;BME280;11538;48.884;8.696;2023-07-20T12:38:12;98530.72;;;33.25;21.75
22743;BME280;11538;48.884;8.696;2023-07-20T12:40:40;98530.22;;;33.17;21.69
22743;BME280;11538;48.884;8.696;2023-07-20T12:43:08;98520.97;;;32.85;21.62
22743;BME280;11538;48.884;8.696;2023-07-20T12:45:35;98521.78;;;32.86;21.52
22743;BME280;11538;48.884;8.696;2023-07-20T12:48:02;98513.22;;;33.21;21.13
22743;BME280;11538;48.884;8.696;2023-07-20T12:50:30;98522.09;;;33.19;21.49
22743;BME280;11538;48.884;8.696;2023-07-20T12:52:57;98522.91;;;33.61;21.37
22743;BME280;11538;48.884;8.696;2023-07-20T12:55:25;98515.22;;;33.43;21.50
22743;BME280;11538;48.884;8.696;2023-07-20T12:58:17;98511.81;;;33.57;21.90
22743;BME280;11538;48.884;8.696;2023-07-20T13:00:44;98506.03;;;33.61;21.94
22743;BME280;11538;48.884;8.696;2023-07-20T13:03:11;98498.19;;;33.46;22.03
22743;BME280;11538;48.884;8.696;2023-07-20T13:05:56;98498.41;;;33.71;21.84
22743;BME280;11538;48.884;8.696;2023-07-20T13:08:29;98516.16;;;34.08;20.66
22743;BME280;11538;48.884;8.696;2023-07-20T13:10:57;98512.53;;;34.26;19.03
22743;BME280;11538;48.884;8.696;2023-07-20T13:13:24;98516.47;;;34.20;18.48
22743;BME280;11538;48.884;8.696;2023-07-20T13:15:51;98499.31;;;33.49;19.79
22743;BME280;11538;48.884;8.696;2023-07-20T13:18:17;98497.00;;;33.75;19.63
22743;BME280;11538;48.884;8.696;2023-07-20T13:20:46;98490.97;;;34.23;19.74
22743;BME280;11538;48.884;8.696;2023-07-20T13:23:13;98488.38;;;35.00;19.07
22743;BME280;11538;48.884;8.696;2023-07-20T13:25:41;98491.31;;;34.96;18.37
22743;BME280;11538;48.884;8.696;2023-07-20T13:28:09;98496.94;;;34.53;17.47
22743;BME280;11538;48.884;8.696;2023-07-20T13:30:36;98503.47;;;33.94;18.63
22743;BME280;11538;48.884;8.696;2023-07-20T13:33:07;98492.41;;;33.41;19.33
22743;BME280;11538;48.884;8.696;2023-07-20T13:35:59;98490.97;;;33.04;19.87
22743;BME280;11538;48.884;8.696;2023-07-20T13:38:37;98492.91;;;33.67;19.51